Time;durP1;ratioP1;P1;durP2;ratioP2;P2;SDS_P1;SDS_P2;PMS_P1;PMS_P2;Temp;Humidity;BMP_temperature;BMP_pressure;BME280_temperature;BME280_humidity;BME280_pressure;Samples;Min_cycle;Max_cycle;Signal;HPM_P1;HPM_P2
2022/04/02 00:01:52;;;;;;;0.87;0.80;;;1.40;99.90;;;;;;4967511;28;20188;-78
2022/04/02 00:04:17;;;;;;;1.00;0.80;;;1.40;99.90;;;;;;4948789;28;20223;-79
2022/04/02 00:06:43;;;;;;;1.63;1.20;;;1.40;99.90;;;;;;4948545;28;20204;-78
2022/04/02 00:09:09;;;;;;;2.83;1.00;;;1.40;99.90;;;;;;4950687;28;20295;-77
2022/04/02 00:11:34;;;;;;;1.27;0.80;;;1.40;99.90;;;;;;4966508;28;20582;-76
2022/04/02 00:14:00;;;;;;;1.43;1.07;;;1.40;99.90;;;;;;4966732;28;20588;-78
2022/04/02 00:16:25;;;;;;;2.57;1.00;;;1.40;99.90;;;;;;4966220;28;20188;-79
2022/04/02 00:18:51;;;;;;;1.33;0.80;;;1.40;99.90;;;;;;4966840;28;20205;-78
2022/04/02 00:21:18;;;;;;;1.80;0.70;;;1.30;99.90;;;;;;4948921;28;20188;-79
2022/04/02 00:23:44;;;;;;;0.90;0.63;;;1.30;99.90;;;;;;4967945;28;20248;-77
2022/04/02 00:26:19;;;;;;;1.40;0.70;;;1.30;99.90;;;;;;4965975;28;20188;-78
2022/04/02 00:28:45;;;;;;;2.70;1.10;;;1.30;99.90;;;;;;4967113;28;20204;-77
2022/04/02 00:31:12;;;;;;;2.07;0.80;;;1.30;99.90;;;;;;4966575;28;20220;-78
2022/04/02 00:33:39;;;;;;;1.20;0.90;;;1.30;99.90;;;;;;4966455;28;20280;-78
2022/04/02 00:36:06;;;;;;;1.47;0.97;;;1.30;99.90;;;;;;4967171;28;20189;-77
2022/04/02 00:38:31;;;;;;;2.10;0.80;;;1.20;99.90;;;;;;4964977;28;20212;-77
2022/04/02 00:40:57;;;;;;;2.00;0.80;;;1.30;99.90;;;;;;4948999;28;20238;-77
2022/04/02 00:43:28;;;;;;;1.03;0.67;;;1.20;99.90;;;;;;4966740;28;20220;-78
2022/04/02 00:45:55;;;;;;;1.53;0.63;;;1.30;99.90;;;;;;4948463;28;20189;-78
2022/04/02 00:48:22;;;;;;;1.47;0.90;;;1.20;99.90;;;;;;4965282;28;20270;-77
2022/04/02 00:50:52;;;;;;;0.93;0.60;;;1.20;99.90;;;;;;4947633;28;20219;-78
2022/04/02 00:53:18;;;;;;;1.70;0.77;;;1.30;99.90;;;;;;4965372;28;20533;-77
2022/04/02 00:55:45;;;;;;;0.53;0.53;;;1.20;99.90;;;;;;4965519;28;20185;-77
2022/04/02 00:58:11;;;;;;;1.23;0.77;;;1.20;99.90;;;;;;4954636;28;20236;-77
2022/04/02 01:00:39;;;;;;;1.03;0.73;;;1.20;99.90;;;;;;4965134;28;20193;-77
2022/04/02 01:03:05;;;;;;;1.33;0.90;;;1.10;99.90;;;;;;4965730;28;20185;-77
2022/04/02 01:05:31;;;;;;;2.33;0.73;;;1.10;99.90;;;;;;4947413;28;20185;-78
2022/04/02 01:07:57;;;;;;;1.73;1.00;;;1.20;99.90;;;;;;4966726;28;20262;-77
2022/04/02 01:10:23;;;;;;;2.37;0.80;;;1.20;99.90;;;;;;4948321;28;21305;-77
2022/04/02 01:12:49;;;;;;;1.30;0.80;;;1.20;99.90;;;;;;4967881;28;20181;-79
2022/04/02 01:15:14;;;;;;;2.40;0.93;;;1.20;99.90;;;;;;4969519;28;21197;-78
2022/04/02 01:17:40;;;;;;;1.60;1.17;;;1.20;99.90;;;;;;4969260;28;21234;-78
2022/04/02 01:20:09;;;;;;;1.97;0.80;;;1.20;99.90;;;;;;4951544;28;20197;-77
2022/04/02 01:22:36;;;;;;;1.20;1.10;;;1.20;99.90;;;;;;4950995;28;20189;-77
2022/04/02 01:25:02;;;;;;;1.17;0.90;;;1.10;99.90;;;;;;4969141;28;20217;-78
2022/04/02 01:27:28;;;;;;;1.73;1.00;;;1.10;99.90;;;;;;4968508;28;20208;-77
2022/04/02 01:29:54;;;;;;;1.30;0.50;;;1.10;99.90;;;;;;4969081;28;20294;-77
2022/04/02 01:32:21;;;;;;;0.70;0.60;;;1.10;99.90;;;;;;4950955;28;20189;-78
2022/04/02 01:34:47;;;;;;;1.20;0.70;;;1.10;99.90;;;;;;4968424;28;20185;-77
2022/04/02 01:37:19;;;;;;;0.77;0.73;;;1.10;99.90;;;;;;4968350;28;20249;-77
2022/04/02 01:39:44;;;;;;;2.03;0.80;;;1.10;99.90;;;;;;4969431;28;20211;-77
2022/04/02 01:42:10;;;;;;;0.93;0.87;;;1.10;99.90;;;;;;4950981;28;20197;-78
2022/04/02 01:44:36;;;;;;;2.33;0.73;;;1.10;99.90;;;;;;4950837;28;20189;-77
2022/04/02 01:47:02;;;;;;;1.80;1.00;;;1.10;99.90;;;;;;4949309;28;20192;-77
2022/04/02 01:49:28;;;;;;;1.90;1.00;;;1.10;99.90;;;;;;4967272;28;20636;-77
2022/04/02 01:51:53;;;;;;;1.00;0.90;;;1.10;99.90;;;;;;4949985;28;20189;-78
2022/04/02 01:54:20;;;;;;;2.23;1.20;;;1.00;99.90;;;;;;4968218;28;20181;-79
2022/04/02 01:56:47;;;;;;;2.37;0.87;;;1.10;99.90;;;;;;4967552;28;20553;-78
2022/04/02 01:59:13;;;;;;;1.20;0.90;;;1.10;99.90;;;;;;4968127;28;20576;-77
2022/04/02 02:01:39;;;;;;;2.63;1.10;;;1.00;99.90;;;;;;4967426;28;20193;-77
2022/04/02 02:04:04;;;;;;;1.13;0.77;;;1.10;99.90;;;;;;4967833;28;20228;-79
2022/04/02 02:06:31;;;;;;;0.90;0.57;;;1.10;99.90;;;;;;4967774;28;20193;-79
2022/04/02 02:08:57;;;;;;;1.43;1.03;;;1.00;99.90;;;;;;4967807;28;20205;-79
2022/04/02 02:11:23;;;;;;;3.10;1.47;;;1.00;99.90;;;;;;4965841;28;20193;-76
2022/04/02 02:13:48;;;;;;;1.83;0.80;;;1.00;99.90;;;;;;4965615;28;20242;-77
2022/04/02 02:16:14;;;;;;;1.10;1.00;;;1.00;99.90;;;;;;4968657;28;20260;-76
2022/04/02 02:18:39;;;;;;;2.50;1.20;;;1.00;99.90;;;;;;4951678;28;20279;-76
2022/04/02 02:21:06;;;;;;;1.07;0.93;;;1.00;99.90;;;;;;4966975;28;20185;-77
2022/04/02 02:23:32;;;;;;;1.47;1.00;;;1.00;99.90;;;;;;4967543;28;20182;-77
2022/04/02 02:25:57;;;;;;;2.30;0.90;;;0.90;99.90;;;;;;4968084;28;20538;-76
2022/04/02 02:28:23;;;;;;;1.97;1.13;;;1.00;99.90;;;;;;4968463;28;20201;-77
2022/04/02 02:30:49;;;;;;;1.57;0.83;;;0.90;99.90;;;;;;4950348;28;20631;-76
2022/04/02 02:35:58;;;;;;;1.27;1.00;;;0.80;99.90;;;;;;4968404;28;20196;-77
2022/04/02 02:38:24;;;;;;;1.77;0.80;;;0.80;99.90;;;;;;4949896;28;20197;-80
2022/04/02 02:40:51;;;;;;;1.93;1.10;;;0.80;99.90;;;;;;4968415;28;20808;-79
2022/04/02 02:43:17;;;;;;;3.43;1.00;;;0.70;99.90;;;;;;4949872;28;20253;-79
2022/04/02 02:45:43;;;;;;;1.53;1.10;;;0.70;99.90;;;;;;4965448;28;20181;-77
2022/04/02 02:48:09;;;;;;;1.30;1.20;;;0.70;99.90;;;;;;4949690;28;21049;-78
2022/04/02 02:50:35;;;;;;;1.67;1.17;;;0.70;99.90;;;;;;4950090;28;20292;-79
2022/04/02 02:53:01;;;;;;;1.03;0.93;;;0.60;99.90;;;;;;4967894;28;20596;-78
2022/04/02 02:55:28;;;;;;;1.30;1.13;;;0.60;99.90;;;;;;4967742;28;20185;-78
2022/04/02 02:57:54;;;;;;;1.43;0.97;;;0.50;99.90;;;;;;4949468;28;20243;-81
2022/04/02 03:00:19;;;;;;;2.67;1.10;;;0.50;99.90;;;;;;4949591;28;20266;-78
2022/04/02 03:02:45;;;;;;;1.87;1.30;;;0.40;99.90;;;;;;4950008;28;20185;-77
2022/04/02 03:05:13;;;;;;;1.67;1.27;;;0.40;99.90;;;;;;4948957;28;20276;-77
2022/04/02 03:07:48;;;;;;;2.07;1.57;;;0.40;99.90;;;;;;4964484;28;20227;-78
2022/04/02 03:10:14;;;;;;;2.27;1.23;;;0.40;99.90;;;;;;4967676;28;20212;-80
2022/04/02 03:12:39;;;;;;;1.40;1.30;;;0.40;99.90;;;;;;4966830;28;20189;-80
2022/04/02 03:15:05;;;;;;;2.40;1.30;;;0.30;99.90;;;;;;4967768;28;20276;-80
2022/04/02 03:17:31;;;;;;;1.83;1.30;;;0.20;99.90;;;;;;4950060;28;20208;-80
2022/04/02 03:19:57;;;;;;;1.30;1.20;;;0.20;99.90;;;;;;4968107;28;20197;-80
2022/04/02 03:22:22;;;;;;;2.30;1.37;;;0.20;99.90;;;;;;4967595;28;20189;-80
2022/04/02 03:24:48;;;;;;;2.23;1.27;;;0.10;99.90;;;;;;4968007;28;20647;-80
2022/04/02 03:27:14;;;;;;;1.97;1.60;;;0.10;99.90;;;;;;4957205;28;20213;-80
2022/04/02 03:29:39;;;;;;;1.53;1.20;;;0.10;99.90;;;;;;4949481;28;20253;-79
2022/04/02 03:32:05;;;;;;;3.60;1.80;;;0.00;99.90;;;;;;4967294;28;20227;-80
2022/04/02 03:34:31;;;;;;;3.80;1.50;;;0.00;99.90;;;;;;4951019;28;20781;-81
2022/04/02 03:36:56;;;;;;;3.27;1.47;;;-0.20;99.90;;;;;;4947197;28;20284;-80
2022/04/02 03:39:22;;;;;;;2.07;1.30;;;-0.20;99.90;;;;;;4947328;28;20291;-79
2022/04/02 03:41:48;;;;;;;2.80;1.30;;;-0.20;99.90;;;;;;4946358;28;20272;-81
2022/04/02 03:44:13;;;;;;;1.33;1.13;;;-0.20;99.90;;;;;;4952986;28;20185;-80
2022/04/02 03:49:25;;;;;;;3.57;1.57;;;-0.30;99.90;;;;;;4972396;28;20278;-79
2022/04/02 03:51:51;;;;;;;2.30;1.50;;;-0.30;99.90;;;;;;4972466;28;20192;-80
2022/04/02 03:54:17;;;;;;;5.37;1.43;;;-0.40;99.90;;;;;;4972156;28;20177;-81
2022/04/02 03:56:43;;;;;;;1.83;1.50;;;-0.40;99.90;;;;;;4971077;28;20591;-80
2022/04/02 03:59:11;;;;;;;1.93;1.47;;;-0.50;99.90;;;;;;4954387;28;20212;-79
2022/04/02 04:01:37;;;;;;;4.27;1.80;;;-0.60;99.90;;;;;;4954191;28;20280;-80
2022/04/02 04:04:04;;;;;;;1.97;1.67;;;-0.50;99.90;;;;;;4971811;28;20281;-79
2022/04/02 04:06:31;;;;;;;2.33;1.30;;;-0.60;99.90;;;;;;4970349;28;20256;-81
2022/04/02 04:08:58;;;;;;;2.20;1.67;;;-0.60;99.90;;;;;;4953043;28;20209;-80
2022/04/02 04:11:25;;;;;;;1.90;1.33;;;-0.60;99.90;;;;;;4969123;28;20269;-80
2022/04/02 04:13:51;;;;;;;1.83;1.23;;;-0.60;99.90;;;;;;4953225;28;20181;-80
2022/04/02 04:16:16;;;;;;;3.47;1.40;;;-0.60;99.90;;;;;;4953384;28;20189;-79
2022/04/02 04:18:42;;;;;;;1.83;1.30;;;-0.60;99.90;;;;;;4971821;28;20231;-79
2022/04/02 04:21:07;;;;;;;3.57;1.80;;;-0.60;99.90;;;;;;4952891;28;20189;-78
2022/04/02 04:23:34;;;;;;;2.17;1.40;;;-0.60;99.90;;;;;;4953401;28;20182;-79
2022/04/02 04:26:00;;;;;;;1.63;1.53;;;-0.70;99.90;;;;;;4970536;28;20188;-78
2022/04/02 04:28:26;;;;;;;2.20;1.40;;;-0.70;99.90;;;;;;4969911;28;20831;-80
2022/04/02 04:30:51;;;;;;;1.77;1.30;;;-0.70;99.90;;;;;;4952432;28;20243;-80
2022/04/02 04:33:17;;;;;;;3.20;1.50;;;-0.70;99.90;;;;;;4953003;28;20654;-80
2022/04/02 04:35:42;;;;;;;2.77;1.50;;;-0.70;99.90;;;;;;4953443;28;20181;-79
2022/04/02 04:38:08;;;;;;;1.40;1.27;;;-0.70;99.90;;;;;;4971409;28;20641;-80
2022/04/02 04:40:34;;;;;;;2.43;1.33;;;-0.70;99.90;;;;;;4970035;28;20221;-80
2022/04/02 04:43:00;;;;;;;2.73;1.57;;;-0.80;99.90;;;;;;4952734;28;20196;-79
2022/04/02 04:45:25;;;;;;;3.10;1.47;;;-0.80;99.90;;;;;;4953144;28;20654;-81
2022/04/02 04:47:51;;;;;;;2.40;1.50;;;-0.80;99.90;;;;;;4951596;28;20221;-80
2022/04/02 04:50:18;;;;;;;2.63;1.30;;;-0.80;99.90;;;;;;4969735;28;20228;-79
2022/04/02 04:52:44;;;;;;;3.27;1.90;;;-0.80;99.90;;;;;;4952336;28;20185;-80
2022/04/02 04:55:10;;;;;;;3.43;2.00;;;-0.90;99.90;;;;;;4953073;28;20196;-79
2022/04/02 04:57:36;;;;;;;4.33;2.20;;;-0.90;99.90;;;;;;4951009;28;20626;-80
2022/04/02 05:00:03;;;;;;;3.63;2.13;;;-0.90;99.90;;;;;;4970036;28;20195;-80
2022/04/02 05:02:30;;;;;;;2.73;2.07;;;-0.90;99.90;;;;;;4948523;28;20910;-79
2022/04/02 05:04:56;;;;;;;2.90;1.67;;;-0.90;99.90;;;;;;4947377;28;20738;-79
2022/04/02 05:07:21;;;;;;;2.73;1.50;;;-0.90;99.90;;;;;;4946652;28;20276;-79
2022/04/02 05:09:47;;;;;;;1.97;1.70;;;-0.90;99.90;;;;;;4946658;28;20559;-79
2022/04/02 05:12:15;;;;;;;3.33;1.60;;;-0.80;99.90;;;;;;4945430;28;20602;-80
2022/04/02 05:14:41;;;;;;;3.13;1.80;;;-0.80;99.90;;;;;;4946585;28;20177;-79
2022/04/02 05:17:07;;;;;;;2.83;1.80;;;-0.80;99.90;;;;;;4964505;28;20196;-79
2022/04/02 05:19:33;;;;;;;3.97;1.87;;;-0.80;99.90;;;;;;4964817;28;20188;-79
2022/04/02 05:22:00;;;;;;;2.47;1.97;;;-0.80;99.90;;;;;;4965016;28;20667;-78
2022/04/02 05:24:26;;;;;;;3.80;2.00;;;-0.80;99.90;;;;;;4965227;28;20607;-79
2022/04/02 05:26:52;;;;;;;2.67;2.30;;;-0.70;99.90;;;;;;4946782;28;20553;-79
2022/04/02 05:29:17;;;;;;;4.90;1.90;;;-0.60;99.90;;;;;;4946298;28;20197;-80
2022/04/02 05:31:43;;;;;;;2.30;1.90;;;-0.60;99.90;;;;;;4945908;28;20205;-81
2022/04/02 05:34:09;;;;;;;2.13;1.60;;;-0.60;99.90;;;;;;4965056;28;20252;-79
2022/04/02 05:36:37;;;;;;;2.57;1.97;;;-0.50;99.90;;;;;;4946325;28;20212;-79
2022/04/02 05:39:02;;;;;;;4.83;2.00;;;-0.50;99.90;;;;;;4965006;28;20193;-79
2022/04/02 05:41:29;;;;;;;3.40;2.33;;;-0.40;99.90;;;;;;4946639;28;20546;-78
2022/04/02 05:43:54;;;;;;;4.10;2.07;;;-0.30;99.90;;;;;;4946970;28;20193;-78
2022/04/02 05:46:20;;;;;;;4.53;2.27;;;-0.20;99.90;;;;;;4964197;28;20651;-79
2022/04/02 05:48:46;;;;;;;4.20;2.70;;;-0.20;99.90;;;;;;4969098;28;20669;-81
2022/04/02 05:51:12;;;;;;;5.20;2.90;;;-0.10;99.90;;;;;;4952090;28;20232;-80
2022/04/02 05:53:37;;;;;;;4.77;2.73;;;0.00;99.90;;;;;;4950090;28;20187;-79
2022/04/02 05:56:03;;;;;;;6.60;4.00;;;0.10;99.90;;;;;;4968591;28;20316;-81
2022/04/02 05:58:29;;;;;;;4.87;3.00;;;0.30;99.90;;;;;;4970202;28;20380;-80
2022/04/02 06:00:55;;;;;;;4.97;2.80;;;0.40;99.90;;;;;;4953566;28;20808;-80
2022/04/02 06:03:20;;;;;;;2.47;1.60;;;0.50;99.90;;;;;;4956398;28;20176;-80
2022/04/02 06:05:48;;;;;;;2.30;1.57;;;0.60;99.90;;;;;;4982032;28;20189;-80
2022/04/02 06:08:15;;;;;;;1.60;1.40;;;0.60;99.90;;;;;;4980431;28;20205;-79
2022/04/02 06:10:43;;;;;;;4.50;2.17;;;0.70;99.90;;;;;;4970452;28;20208;-80
2022/04/02 06:13:08;;;;;;;3.00;1.90;;;0.80;99.90;;;;;;4976125;28;20242;-81
2022/04/02 06:15:34;;;;;;;3.13;2.13;;;0.90;99.90;;;;;;4957377;28;20185;-81
2022/04/02 06:18:00;;;;;;;2.60;1.53;;;1.00;99.90;;;;;;4970715;28;20213;-79
2022/04/02 06:20:26;;;;;;;2.40;1.60;;;1.00;99.90;;;;;;4959100;28;20188;-80
2022/04/02 06:22:51;;;;;;;2.03;1.37;;;1.20;99.90;;;;;;4972796;28;20192;-79
2022/04/02 06:25:17;;;;;;;2.60;1.17;;;1.20;99.90;;;;;;4958265;28;20185;-79
2022/04/02 06:27:44;;;;;;;1.93;1.30;;;1.20;99.90;;;;;;4974060;28;20204;-80
2022/04/02 06:30:12;;;;;;;2.83;1.60;;;1.20;99.90;;;;;;4973783;28;20615;-79
2022/04/02 06:32:38;;;;;;;2.60;1.70;;;1.20;99.90;;;;;;4952118;28;20209;-83
2022/04/02 06:35:04;;;;;;;3.80;1.70;;;1.40;99.90;;;;;;4956146;28;20683;-79
2022/04/02 06:37:35;;;;;;;3.20;1.70;;;1.40;99.90;;;;;;4951916;28;20201;-83
2022/04/02 06:40:01;;;;;;;2.97;1.57;;;1.40;99.90;;;;;;4957524;28;20196;-82
2022/04/02 06:42:27;;;;;;;3.10;1.27;;;1.50;99.90;;;;;;4959105;28;20242;-82
2022/04/02 06:44:52;;;;;;;3.20;1.40;;;1.50;99.90;;;;;;4953991;28;20321;-83
2022/04/02 06:47:23;;;;;;;3.33;1.37;;;1.60;99.90;;;;;;4953865;28;20220;-78
2022/04/02 06:49:48;;;;;;;2.43;1.50;;;1.70;99.90;;;;;;4961209;28;20795;-78
2022/04/02 06:52:14;;;;;;;2.80;1.27;;;1.70;99.90;;;;;;4952153;28;20225;-81
2022/04/02 06:54:40;;;;;;;2.60;1.80;;;1.80;99.90;;;;;;4949887;28;20189;-77
2022/04/02 06:57:05;;;;;;;3.43;2.63;;;1.80;99.90;;;;;;4949830;28;20564;-80
2022/04/02 06:59:31;;;;;;;2.73;1.73;;;1.90;99.90;;;;;;4949266;28;20205;-79
2022/04/02 07:01:57;;;;;;;4.63;2.67;;;2.20;99.90;;;;;;4967109;28;20407;-80
2022/04/02 07:04:23;;;;;;;6.53;4.07;;;2.20;99.90;;;;;;4948909;28;20192;-78
2022/04/02 07:06:49;;;;;;;3.30;1.80;;;2.30;99.90;;;;;;4961741;28;20228;-79
2022/04/02 07:09:17;;;;;;;9.80;6.23;;;2.40;99.90;;;;;;4947668;28;20286;-79
2022/04/02 07:11:42;;;;;;;4.87;3.43;;;2.50;99.90;;;;;;4948036;28;20287;-80
2022/04/02 07:14:09;;;;;;;8.73;6.27;;;2.60;99.90;;;;;;4966985;28;20264;-82
2022/04/02 07:16:36;;;;;;;4.63;2.50;;;2.50;99.90;;;;;;4950887;28;20169;-80
2022/04/02 07:19:02;;;;;;;6.33;4.53;;;2.50;99.90;;;;;;4953348;28;20537;-81
2022/04/02 07:21:29;;;;;;;12.60;6.80;;;2.60;99.90;;;;;;4950854;28;20268;-78
2022/04/02 07:23:56;;;;;;;12.57;9.33;;;2.90;99.90;;;;;;4968476;28;20192;-77
2022/04/02 07:26:22;;;;;;;3.57;1.83;;;3.00;99.90;;;;;;4947923;28;20562;-79
2022/04/02 07:28:48;;;;;;;7.03;6.20;;;3.10;99.90;;;;;;4965368;28;20205;-80
2022/04/02 07:31:13;;;;;;;7.83;5.90;;;3.00;99.90;;;;;;4965668;28;21253;-80
2022/04/02 07:33:39;;;;;;;5.23;3.60;;;2.80;99.90;;;;;;4948189;28;20188;-79
2022/04/02 07:36:16;;;;;;;6.60;2.87;;;3.10;99.90;;;;;;4946604;28;20188;-79
2022/04/02 07:39:23;;;;;;;2.93;2.63;;;3.10;99.90;;;;;;4948905;28;21020;-78
2022/04/02 07:42:32;;;;;;;4.07;2.83;;;3.20;99.90;;;;;;4994414;28;20222;-79
2022/04/02 07:45:07;;;;;;;20.97;14.07;;;3.70;99.90;;;;;;4955179;28;20562;-82
2022/04/02 07:47:35;;;;;;;28.43;16.10;;;3.70;99.90;;;;;;4952743;28;20266;-80
2022/04/02 07:50:13;;;;;;;58.30;30.60;;;3.80;99.90;;;;;;4948032;28;20708;-78
2022/04/02 07:52:43;;;;;;;10.97;6.07;;;4.00;99.90;;;;;;4964404;28;20177;-80
2022/04/02 07:55:10;;;;;;;66.63;31.97;;;4.40;99.90;;;;;;4965469;28;21250;-80
2022/04/02 07:57:44;;;;;;;16.27;10.40;;;4.40;99.90;;;;;;4954151;28;20208;-78
2022/04/02 08:00:13;;;;;;;9.13;6.23;;;4.10;99.90;;;;;;4947217;28;20192;-80
2022/04/02 08:02:46;;;;;;;10.23;6.73;;;4.00;99.90;;;;;;4942366;28;20223;-81
2022/04/02 08:05:14;;;;;;;11.13;7.90;;;4.00;99.90;;;;;;4960074;28;20233;-80
2022/04/02 08:07:44;;;;;;;6.63;4.33;;;4.30;99.90;;;;;;4943478;28;20227;-80
2022/04/02 08:10:14;;;;;;;3.50;1.93;;;4.20;99.90;;;;;;4964402;28;20201;-79
2022/04/02 08:12:41;;;;;;;4.13;3.37;;;4.30;99.90;;;;;;4964631;28;20251;-79
2022/04/02 08:15:13;;;;;;;7.43;4.67;;;4.20;99.90;;;;;;4964784;28;20177;-78
2022/04/02 08:17:40;;;;;;;4.30;3.07;;;3.80;99.90;;;;;;4945482;28;20201;-80
2022/04/02 08:20:07;;;;;;;4.97;3.07;;;3.80;99.90;;;;;;4957827;28;20192;-79
2022/04/02 08:22:33;;;;;;;8.23;4.27;;;3.80;99.90;;;;;;4944639;28;20189;-80
2022/04/02 08:24:59;;;;;;;3.57;2.10;;;3.90;99.90;;;;;;4946346;28;20960;-80
2022/04/02 08:27:25;;;;;;;4.60;2.73;;;3.80;99.90;;;;;;4963226;28;20184;-80
2022/04/02 08:30:00;;;;;;;2.57;1.50;;;3.90;99.90;;;;;;4946586;28;20189;-81
2022/04/02 08:32:52;;;;;;;2.60;1.83;;;3.90;99.90;;;;;;4946522;28;20181;-79
2022/04/02 08:35:28;;;;;;;3.10;2.30;;;4.00;99.90;;;;;;4961998;28;20654;-81
2022/04/02 08:38:12;;;;;;;3.40;1.97;;;3.90;99.90;;;;;;4948537;28;20208;-79
2022/04/02 08:41:19;;;;;;;3.57;2.53;;;3.80;99.90;;;;;;4964496;28;20189;-81
2022/04/02 08:43:54;;;;;;;5.53;3.87;;;3.80;99.90;;;;;;4961852;28;20211;-80
2022/04/02 08:46:36;;;;;;;4.67;2.40;;;3.70;99.90;;;;;;4946772;28;20318;-79
2022/04/02 08:49:23;;;;;;;2.30;1.67;;;3.50;99.90;;;;;;4938875;28;20278;-79
2022/04/02 08:52:15;;;;;;;1.90;1.70;;;3.40;99.90;;;;;;4946877;28;20209;-80
2022/04/02 08:55:05;;;;;;;7.57;4.50;;;3.40;99.90;;;;;;4946517;28;20270;-81
2022/04/02 08:57:39;;;;;;;9.90;6.60;;;3.60;99.90;;;;;;4963429;28;20251;-79
2022/04/02 09:00:11;;;;;;;5.73;4.40;;;3.60;99.90;;;;;;4946996;28;20662;-81
2022/04/02 09:02:49;;;;;;;3.47;3.17;;;3.50;99.90;;;;;;4964961;28;20579;-82
2022/04/02 09:05:27;;;;;;;3.83;2.50;;;3.40;99.90;;;;;;4938611;28;20177;-81
2022/04/02 09:08:04;;;;;;;4.70;4.30;;;3.50;99.90;;;;;;4939450;28;20216;-80
2022/04/02 09:11:11;;;;;;;2.90;2.70;;;3.60;99.90;;;;;;4964343;28;20213;-80
2022/04/02 09:13:45;;;;;;;4.10;3.70;;;3.40;99.90;;;;;;4950466;28;20258;-80
2022/04/02 09:16:34;;;;;;;3.37;3.07;;;3.20;99.90;;;;;;4940974;28;20525;-80
2022/04/02 09:19:34;;;;;;;5.37;2.87;;;3.30;99.90;;;;;;4963011;28;20273;-79
2022/04/02 09:22:07;;;;;;;1.47;1.37;;;3.40;99.90;;;;;;4960223;28;20208;-80
2022/04/02 09:24:59;;;;;;;2.07;1.30;;;3.60;99.90;;;;;;4963968;28;20512;-80
2022/04/02 09:27:34;;;;;;;2.27;1.30;;;3.70;99.90;;;;;;4964415;28;20185;-79
2022/04/02 09:30:29;;;;;;;2.10;1.77;;;3.50;99.90;;;;;;4957169;28;20208;-78
2022/04/02 09:33:13;;;;;;;2.37;1.50;;;3.30;99.90;;;;;;4952003;28;20201;-79
2022/04/02 09:35:49;;;;;;;2.63;1.60;;;3.40;99.90;;;;;;4943604;28;20185;-80
2022/04/02 09:38:49;;;;;;;1.20;1.03;;;3.40;99.90;;;;;;4948890;28;20204;-79
2022/04/02 09:41:24;;;;;;;2.60;1.87;;;3.60;99.90;;;;;;4948343;28;20215;-78
2022/04/02 09:44:04;;;;;;;1.57;1.47;;;3.50;99.90;;;;;;4948904;28;20551;-78
2022/04/02 09:46:48;;;;;;;1.73;1.20;;;3.60;99.90;;;;;;4968158;28;20261;-77
2022/04/02 09:49:27;;;;;;;2.30;1.43;;;3.60;99.90;;;;;;4967905;28;20220;-77
2022/04/02 09:52:03;;;;;;;2.50;1.27;;;3.90;99.90;;;;;;4967582;28;20304;-79
2022/04/02 09:55:04;;;;;;;2.50;1.30;;;4.00;99.90;;;;;;4949141;28;20191;-78
2022/04/02 09:57:43;;;;;;;2.73;1.70;;;4.00;99.90;;;;;;4975809;28;20765;-78
2022/04/02 10:00:09;;;;;;;2.10;1.43;;;4.10;99.90;;;;;;4945372;28;20323;-79
2022/04/02 10:03:00;;;;;;;3.23;1.57;;;4.20;99.90;;;;;;4949402;28;20215;-78
2022/04/02 10:05:56;;;;;;;1.50;1.03;;;4.30;99.90;;;;;;4942627;28;21327;-78
2022/04/02 10:08:39;;;;;;;3.70;1.67;;;4.20;99.90;;;;;;4965804;28;20211;-78
2022/04/02 10:11:11;;;;;;;1.50;1.30;;;3.90;99.90;;;;;;4965892;28;20266;-78
2022/04/02 10:13:39;;;;;;;2.40;1.73;;;4.00;99.90;;;;;;4956931;28;20182;-79
2022/04/02 10:16:06;;;;;;;1.90;1.40;;;4.20;99.90;;;;;;4966914;28;20227;-80
2022/04/02 10:18:36;;;;;;;1.33;1.00;;;4.10;99.90;;;;;;4946198;28;20200;-80
2022/04/02 10:21:05;;;;;;;2.30;1.40;;;4.00;99.90;;;;;;4949881;28;20193;-78
2022/04/02 10:23:35;;;;;;;2.90;1.37;;;4.10;99.90;;;;;;4948507;28;20197;-78
2022/04/02 10:26:18;;;;;;;2.03;1.27;;;4.10;99.90;;;;;;4949702;28;20251;-78
2022/04/02 10:28:54;;;;;;;2.50;1.30;;;4.00;99.90;;;;;;4948157;28;20590;-78
2022/04/02 10:31:47;;;;;;;2.67;1.67;;;4.00;99.90;;;;;;4949312;28;20693;-78
2022/04/02 10:34:46;;;;;;;2.23;1.37;;;4.10;99.90;;;;;;4965310;28;20188;-78
2022/04/02 10:37:15;;;;;;;3.53;1.60;;;4.10;99.90;;;;;;4946327;28;20358;-82
2022/04/02 10:39:50;;;;;;;1.83;1.30;;;4.00;99.90;;;;;;4967511;28;20237;-79
2022/04/02 10:42:19;;;;;;;2.53;1.67;;;4.10;99.90;;;;;;4964305;28;20520;-80
2022/04/02 10:44:50;;;;;;;3.03;1.40;;;4.30;99.90;;;;;;4948474;28;20189;-85
2022/04/02 10:47:20;;;;;;;2.00;1.20;;;4.20;99.90;;;;;;4949044;28;20189;-80
2022/04/02 10:49:50;;;;;;;2.13;1.20;;;4.20;99.90;;;;;;4949417;28;20590;-78
2022/04/02 10:52:16;;;;;;;2.50;1.73;;;4.30;99.90;;;;;;4967260;28;20173;-78
2022/04/02 10:54:48;;;;;;;2.53;1.50;;;4.40;99.90;;;;;;4947974;28;20606;-78
2022/04/02 10:57:15;;;;;;;2.70;1.40;;;4.40;99.90;;;;;;4961893;28;20173;-78
2022/04/02 10:59:44;;;;;;;1.77;1.03;;;4.60;99.90;;;;;;4943812;28;20205;-77
2022/04/02 11:02:21;;;;;;;3.10;1.33;;;4.90;99.90;;;;;;4964318;28;20197;-78
2022/04/02 11:04:56;;;;;;;1.50;1.10;;;4.90;99.90;;;;;;4965198;28;20176;-78
2022/04/02 11:07:30;;;;;;;2.50;1.30;;;4.70;99.90;;;;;;4962696;28;20271;-77
2022/04/02 11:09:59;;;;;;;2.37;1.47;;;4.90;99.90;;;;;;4963104;28;20189;-78
2022/04/02 11:12:30;;;;;;;1.53;1.30;;;5.30;99.90;;;;;;4963072;28;20181;-78
2022/04/02 11:15:13;;;;;;;1.03;0.93;;;5.30;99.90;;;;;;4963642;28;20238;-79
2022/04/02 11:17:41;;;;;;;1.57;1.10;;;5.50;99.90;;;;;;4961895;28;20972;-77
2022/04/02 11:20:14;;;;;;;2.07;1.37;;;5.50;99.90;;;;;;4945540;28;20736;-78
2022/04/02 11:22:51;;;;;;;4.83;2.40;;;5.90;99.90;;;;;;4944518;28;20181;-78
2022/04/02 11:25:31;;;;;;;2.00;1.23;;;6.10;99.90;;;;;;4944842;28;20181;-77
2022/04/02 11:28:08;;;;;;;2.57;1.30;;;5.90;99.90;;;;;;4959963;28;20209;-78
2022/04/02 11:30:43;;;;;;;2.27;1.33;;;6.00;99.90;;;;;;4944339;28;20205;-80
2022/04/02 11:33:25;;;;;;;3.37;1.73;;;5.70;99.90;;;;;;4948523;28;20189;-84
2022/04/02 11:35:52;;;;;;;3.43;1.93;;;5.60;99.90;;;;;;4948696;28;20185;-85
2022/04/02 11:38:21;;;;;;;5.03;3.10;;;5.60;99.90;;;;;;4945006;28;20605;-83
2022/04/02 11:41:39;;;;;;;84.87;31.87;;;5.80;99.90;;;;;;4946034;28;20185;-83
2022/04/02 11:44:16;;;;;;;38.57;16.97;;;5.70;99.70;;;;;;4953336;28;20228;-82
2022/04/02 11:47:03;;;;;;;68.20;29.17;;;5.90;99.90;;;;;;4943462;28;20188;-83
2022/04/02 11:49:33;;;;;;;33.17;15.13;;;5.80;98.30;;;;;;4961047;28;20308;-83
2022/04/02 11:52:08;;;;;;;26.50;14.20;;;5.90;98.50;;;;;;4944517;28;20500;-83
2022/04/02 11:54:49;;;;;;;2.30;2.10;;;5.80;98.20;;;;;;4962671;28;20179;-84
2022/04/02 11:57:16;;;;;;;3.27;2.67;;;5.60;98.30;;;;;;4943604;28;20181;-83
2022/04/02 11:59:52;;;;;;;2.60;1.50;;;5.50;98.00;;;;;;4942544;28;20440;-83
2022/04/02 12:02:37;;;;;;;3.63;3.33;;;5.50;98.40;;;;;;4958728;28;20204;-78
2022/04/02 12:05:06;;;;;;;6.17;5.57;;;5.50;98.50;;;;;;4962847;28;20188;-78
2022/04/02 12:07:44;;;;;;;6.73;6.10;;;5.50;99.00;;;;;;4942526;28;20197;-77
2022/04/02 12:10:24;;;;;;;8.43;7.17;;;5.70;99.00;;;;;;4960015;28;20237;-78
2022/04/02 12:12:52;;;;;;;7.13;5.50;;;5.80;99.30;;;;;;4938984;28;20185;-77
2022/04/02 12:15:18;;;;;;;16.00;11.93;;;5.70;98.80;;;;;;4959382;28;20184;-79
2022/04/02 12:17:59;;;;;;;6.77;5.20;;;5.80;99.60;;;;;;4959296;28;20193;-77
2022/04/02 12:20:32;;;;;;;2.77;2.30;;;5.60;97.00;;;;;;4960393;28;20268;-78
2022/04/02 12:23:14;;;;;;;2.03;1.70;;;5.70;97.50;;;;;;4945173;28;20530;-78
2022/04/02 12:25:41;;;;;;;2.97;2.03;;;5.60;98.00;;;;;;4943540;28;20177;-78
2022/04/02 12:28:20;;;;;;;4.37;2.87;;;5.70;98.20;;;;;;4966151;28;20311;-78
2022/04/02 12:30:48;;;;;;;4.73;3.33;;;6.10;98.20;;;;;;4967475;28;20212;-78
2022/04/02 12:33:19;;;;;;;2.93;1.70;;;6.00;97.40;;;;;;4948819;28;20182;-78
2022/04/02 12:35:55;;;;;;;2.90;2.00;;;6.20;97.90;;;;;;4947100;28;20196;-80
2022/04/02 12:38:29;;;;;;;4.77;3.33;;;6.10;97.10;;;;;;4947263;28;20201;-80
2022/04/02 12:40:57;;;;;;;4.90;3.13;;;6.10;97.90;;;;;;4950588;28;20554;-80
2022/04/02 12:43:32;;;;;;;2.87;1.63;;;6.20;97.50;;;;;;4948091;28;20178;-79
2022/04/02 12:45:59;;;;;;;2.00;1.70;;;5.90;96.90;;;;;;4964835;28;20189;-79
2022/04/02 12:48:39;;;;;;;2.70;1.73;;;5.50;97.10;;;;;;4963813;28;20700;-79
2022/04/02 12:51:05;;;;;;;1.00;0.90;;;5.40;97.40;;;;;;4948375;28;20345;-78
2022/04/02 12:53:38;;;;;;;2.80;1.10;;;5.20;97.60;;;;;;4965572;28;20185;-79
2022/04/02 12:56:06;;;;;;;0.80;0.60;;;5.40;97.60;;;;;;4947923;28;20215;-77
2022/04/02 12:58:44;;;;;;;1.60;1.10;;;5.30;96.20;;;;;;4963641;28;20205;-79
2022/04/02 13:01:14;;;;;;;1.13;0.97;;;5.30;96.70;;;;;;4949055;28;20212;-78
2022/04/02 13:03:42;;;;;;;2.00;1.13;;;5.40;96.20;;;;;;4966778;28;20538;-81
2022/04/02 13:06:16;;;;;;;2.63;1.50;;;5.40;97.20;;;;;;4966385;28;20195;-82
2022/04/02 13:09:04;;;;;;;3.00;2.10;;;5.50;98.10;;;;;;4951331;28;20207;-78
2022/04/02 13:11:56;;;;;;;4.17;2.10;;;5.40;97.50;;;;;;4946627;28;20493;-82
2022/04/02 13:14:23;;;;;;;1.70;1.30;;;5.20;97.90;;;;;;4944291;28;20196;-80
2022/04/02 13:17:05;;;;;;;2.07;1.53;;;5.10;98.50;;;;;;4956723;28;20176;-80
2022/04/02 13:22:29;;;;;;;11.87;8.20;;;5.30;98.00;;;;;;4975111;28;20246;-80